Time;durP1;ratioP1;P1;durP2;ratioP2;P2;SDS_P1;SDS_P2;PMS_P1;PMS_P2;Temp;Humidity;BMP_temperature;BMP_pressure;BME280_temperature;BME280_humidity;BME280_pressure;Samples;Min_cycle;Max_cycle;Signal;HPM_P1;HPM_P2
2023/03/01 00:01:15;;;;;;;50.35;20.90;;;-3.20;99.90;;;;;;5039582;28;20058;-86
2023/03/01 00:03:42;;;;;;;54.72;20.20;;;-3.20;99.90;;;;;;5056614;28;20070;-86
2023/03/01 00:06:07;;;;;;;51.97;19.73;;;-3.30;99.90;;;;;;5056404;28;20107;-86
2023/03/01 00:08:34;;;;;;;47.45;19.88;;;-3.20;99.90;;;;;;5056123;28;20059;-86
2023/03/01 00:11:13;;;;;;;45.38;20.73;;;-3.20;99.90;;;;;;5073812;28;20039;-86
2023/03/01 00:13:39;;;;;;;52.28;19.70;;;-3.20;99.90;;;;;;5036000;28;20170;-86
2023/03/01 00:16:07;;;;;;;48.15;20.20;;;-3.30;99.90;;;;;;5039494;28;20029;-86
2023/03/01 00:18:32;;;;;;;45.42;19.60;;;-3.20;99.90;;;;;;5039564;28;20047;-86
2023/03/01 00:20:58;;;;;;;48.67;21.77;;;-3.20;99.90;;;;;;5039203;28;20029;-86
2023/03/01 00:23:24;;;;;;;45.50;20.98;;;-3.20;99.90;;;;;;5074215;28;20039;-85
2023/03/01 00:25:51;;;;;;;40.95;18.75;;;-3.10;99.90;;;;;;5039107;28;20468;-85
2023/03/01 00:28:17;;;;;;;48.67;20.95;;;-3.10;99.90;;;;;;5051619;28;20036;-85
2023/03/01 00:30:42;;;;;;;54.95;22.70;;;-3.20;99.90;;;;;;5054698;28;20035;-86
2023/03/01 00:33:08;;;;;;;48.92;21.58;;;-3.20;99.90;;;;;;5039538;28;20036;-86
2023/03/01 00:35:34;;;;;;;58.47;22.25;;;-3.20;99.90;;;;;;5055559;28;20033;-86
2023/03/01 00:38:01;;;;;;;51.30;21.20;;;-3.30;99.90;;;;;;5073468;28;20032;-86
2023/03/01 00:40:38;;;;;;;52.17;22.52;;;-3.30;99.90;;;;;;5055568;28;20111;-85
2023/03/01 00:43:04;;;;;;;54.08;21.60;;;-3.20;99.90;;;;;;5038992;28;20035;-86
2023/03/01 00:45:31;;;;;;;54.65;22.60;;;-3.30;99.90;;;;;;5039168;28;20446;-85
2023/03/01 00:47:57;;;;;;;52.22;21.60;;;-3.30;99.90;;;;;;5039056;28;20020;-86
2023/03/01 00:50:23;;;;;;;50.75;20.83;;;-3.20;99.90;;;;;;5073378;28;20532;-85
2023/03/01 00:52:53;;;;;;;51.85;21.95;;;-3.20;99.90;;;;;;5055430;28;20036;-85
2023/03/01 00:55:19;;;;;;;50.78;22.02;;;-3.20;99.90;;;;;;5048207;28;20033;-86
2023/03/01 00:57:45;;;;;;;53.97;22.27;;;-3.20;99.90;;;;;;5038673;28;20028;-85
2023/03/01 01:00:11;;;;;;;51.88;21.48;;;-3.20;99.90;;;;;;5055057;28;20082;-85
2023/03/01 01:02:37;;;;;;;50.42;22.20;;;-3.20;99.90;;;;;;5038907;28;20017;-86
2023/03/01 01:05:04;;;;;;;54.60;22.35;;;-3.30;99.90;;;;;;5038679;28;20031;-85
2023/03/01 01:07:30;;;;;;;56.90;23.35;;;-3.30;99.90;;;;;;5055202;28;20024;-86
2023/03/01 01:09:55;;;;;;;52.70;22.00;;;-3.30;99.90;;;;;;5038581;28;20365;-85
2023/03/01 01:12:21;;;;;;;48.30;21.30;;;-3.30;99.90;;;;;;5055000;28;20028;-85
2023/03/01 01:14:47;;;;;;;49.53;21.63;;;-3.40;99.90;;;;;;5054847;28;20021;-86
2023/03/01 01:17:12;;;;;;;53.50;23.35;;;-3.40;99.90;;;;;;5054981;28;20028;-85
2023/03/01 01:19:39;;;;;;;57.97;23.35;;;-3.50;99.90;;;;;;5054891;28;20464;-85
2023/03/01 01:22:05;;;;;;;49.55;21.55;;;-3.50;99.90;;;;;;5055079;28;20016;-86
2023/03/01 01:24:31;;;;;;;55.25;23.27;;;-3.50;99.90;;;;;;5038522;28;20020;-85
2023/03/01 01:26:56;;;;;;;59.95;22.38;;;-3.50;99.90;;;;;;5054676;28;20028;-85
2023/03/01 01:29:22;;;;;;;54.60;21.77;;;-3.50;99.90;;;;;;5038342;28;20052;-85
2023/03/01 01:31:48;;;;;;;50.72;21.52;;;-3.50;99.90;;;;;;5055041;28;20025;-85
2023/03/01 01:34:16;;;;;;;58.08;23.27;;;-3.50;99.90;;;;;;5054542;28;20087;-85
2023/03/01 01:36:43;;;;;;;56.00;24.98;;;-3.50;99.90;;;;;;5038151;28;20036;-86
2023/03/01 01:39:12;;;;;;;59.35;22.88;;;-3.50;99.90;;;;;;5038176;28;20036;-86
2023/03/01 01:41:42;;;;;;;57.78;22.13;;;-3.50;99.90;;;;;;5038540;28;20051;-85
2023/03/01 01:44:23;;;;;;;51.72;22.83;;;-3.50;99.90;;;;;;5054747;28;20468;-85
2023/03/01 01:46:55;;;;;;;56.72;22.88;;;-3.50;99.90;;;;;;5030719;28;20021;-85
2023/03/01 01:49:44;;;;;;;58.58;22.95;;;-3.60;99.90;;;;;;5051125;28;20112;-85
2023/03/01 01:52:27;;;;;;;57.30;22.85;;;-3.60;99.90;;;;;;5072818;28;20032;-85
2023/03/01 01:55:14;;;;;;;48.05;21.15;;;-3.70;99.90;;;;;;5031829;28;20021;-85
2023/03/01 01:57:45;;;;;;;59.00;22.75;;;-3.70;99.90;;;;;;5051579;28;20533;-85
2023/03/01 02:00:18;;;;;;;62.33;23.58;;;-3.70;99.90;;;;;;5054969;28;20480;-85
2023/03/01 02:02:46;;;;;;;53.70;22.98;;;-3.60;99.90;;;;;;5030964;28;20086;-86
2023/03/01 02:05:28;;;;;;;54.90;22.58;;;-3.60;99.90;;;;;;5054006;28;20047;-85
2023/03/01 02:07:54;;;;;;;55.40;22.05;;;-3.60;99.90;;;;;;5051565;28;20032;-85
2023/03/01 02:10:23;;;;;;;65.03;23.55;;;-3.60;99.90;;;;;;5038481;28;20028;-85
2023/03/01 02:12:49;;;;;;;56.38;23.15;;;-3.50;99.90;;;;;;5054829;28;20024;-86
2023/03/01 02:15:15;;;;;;;57.88;23.40;;;-3.50;99.90;;;;;;5054634;28;20055;-85
2023/03/01 02:17:41;;;;;;;57.83;24.05;;;-3.50;99.90;;;;;;5072413;28;20426;-85
2023/03/01 02:20:34;;;;;;;61.58;25.08;;;-3.40;99.90;;;;;;5038657;28;20074;-85
2023/03/01 02:23:00;;;;;;;57.17;23.27;;;-3.40;99.90;;;;;;5050654;28;20024;-85
2023/03/01 02:25:47;;;;;;;59.65;24.38;;;-3.40;99.90;;;;;;5059513;28;20031;-85
2023/03/01 02:28:16;;;;;;;59.47;24.85;;;-3.40;99.90;;;;;;5041491;28;20357;-85
2023/03/01 02:33:32;;;;;;;59.13;24.95;;;-3.50;99.90;;;;;;5053243;28;20035;-85
2023/03/01 02:36:01;;;;;;;54.63;23.38;;;-3.40;99.90;;;;;;5037506;28;20135;-85
2023/03/01 02:38:28;;;;;;;62.40;23.90;;;-3.50;99.90;;;;;;5066977;28;20113;-86
2023/03/01 02:41:03;;;;;;;59.45;23.58;;;-3.50;99.90;;;;;;5066055;28;20021;-86
2023/03/01 02:43:31;;;;;;;53.17;22.63;;;-3.60;99.90;;;;;;5034222;28;20434;-85
2023/03/01 02:46:05;;;;;;;59.40;24.23;;;-3.50;99.90;;;;;;5048076;28;20017;-85
2023/03/01 02:48:58;;;;;;;54.45;23.77;;;-3.50;99.90;;;;;;5055226;28;20024;-85
2023/03/01 02:51:33;;;;;;;65.45;24.08;;;-3.50;99.90;;;;;;5030487;28;20044;-85
2023/03/01 02:54:13;;;;;;;56.00;23.52;;;-3.50;99.90;;;;;;5049395;28;20121;-85
2023/03/01 02:56:39;;;;;;;59.38;23.10;;;-3.50;99.90;;;;;;5053031;28;20085;-85
2023/03/01 02:59:06;;;;;;;65.93;26.38;;;-3.60;99.90;;;;;;5046196;28;20025;-85
2023/03/01 03:01:38;;;;;;;63.83;24.23;;;-3.60;99.90;;;;;;5034961;28;20484;-85
2023/03/01 03:04:09;;;;;;;65.18;23.88;;;-3.60;99.90;;;;;;5051372;28;20120;-85
2023/03/01 03:06:35;;;;;;;60.58;24.00;;;-3.60;99.90;;;;;;5033235;28;20056;-85
2023/03/01 03:09:02;;;;;;;64.10;25.63;;;-3.70;99.90;;;;;;5037536;28;20448;-85
2023/03/01 03:11:28;;;;;;;61.67;25.35;;;-3.70;99.90;;;;;;5033274;28;20467;-85
2023/03/01 03:13:56;;;;;;;62.33;25.83;;;-3.70;99.90;;;;;;5052717;28;20472;-85
2023/03/01 03:16:22;;;;;;;66.97;25.65;;;-3.70;99.90;;;;;;5046290;28;20028;-86
2023/03/01 03:18:48;;;;;;;54.00;24.40;;;-3.60;99.90;;;;;;5056952;28;20032;-85
2023/03/01 03:21:14;;;;;;;60.42;25.92;;;-3.60;99.90;;;;;;5057288;28;20024;-85
2023/03/01 03:23:40;;;;;;;59.17;24.70;;;-3.70;99.90;;;;;;5040782;28;20024;-85
2023/03/01 03:26:06;;;;;;;63.22;25.40;;;-3.60;99.90;;;;;;5057190;28;20024;-85
2023/03/01 03:28:33;;;;;;;58.17;25.70;;;-3.60;99.90;;;;;;5057165;28;20024;-85
2023/03/01 03:31:03;;;;;;;62.72;25.08;;;-3.70;99.90;;;;;;5056922;28;20036;-85
2023/03/01 03:33:29;;;;;;;63.45;24.45;;;-3.70;99.90;;;;;;5056637;28;20031;-85
2023/03/01 03:35:55;;;;;;;65.57;26.88;;;-3.70;99.90;;;;;;5056877;28;20017;-84
2023/03/01 03:38:21;;;;;;;54.60;23.35;;;-3.70;99.90;;;;;;5074692;28;20028;-85
2023/03/01 03:41:00;;;;;;;61.78;25.13;;;-3.70;99.90;;;;;;5056858;28;20392;-85
2023/03/01 03:43:26;;;;;;;63.80;25.27;;;-3.70;99.90;;;;;;5057164;28;20036;-84
2023/03/01 03:45:53;;;;;;;63.20;24.60;;;-3.70;99.90;;;;;;5056888;28;20029;-85
2023/03/01 03:48:19;;;;;;;66.85;25.80;;;-3.70;99.90;;;;;;5040160;28;20028;-85
2023/03/01 03:50:56;;;;;;;62.58;24.80;;;-3.70;99.90;;;;;;5056855;28;20032;-85
2023/03/01 03:53:24;;;;;;;57.35;24.52;;;-3.70;99.90;;;;;;5040429;28;20123;-85
2023/03/01 03:55:51;;;;;;;63.60;25.55;;;-3.70;99.90;;;;;;5069582;28;20029;-85
2023/03/01 03:58:19;;;;;;;65.05;26.15;;;-3.70;99.90;;;;;;5074352;28;20067;-85
2023/03/01 04:00:46;;;;;;;63.50;25.27;;;-3.80;99.90;;;;;;5056382;28;20021;-85
2023/03/01 04:03:13;;;;;;;61.95;25.25;;;-3.80;99.90;;;;;;5056512;28;20048;-85
2023/03/01 04:05:40;;;;;;;60.83;25.05;;;-3.80;99.90;;;;;;5039702;28;20035;-84
2023/03/01 04:08:07;;;;;;;78.07;27.05;;;-3.80;99.90;;;;;;5074116;28;20025;-85
2023/03/01 04:10:38;;;;;;;66.03;24.85;;;-3.80;99.90;;;;;;5039612;28;20077;-85
2023/03/01 04:13:11;;;;;;;71.22;26.13;;;-3.70;99.90;;;;;;5074030;28;20036;-85
2023/03/01 04:15:37;;;;;;;58.03;24.58;;;-3.70;99.90;;;;;;5056325;28;20028;-85
2023/03/01 04:18:03;;;;;;;63.58;26.58;;;-3.70;99.90;;;;;;5055969;28;20058;-85
2023/03/01 04:20:33;;;;;;;64.45;25.67;;;-3.70;99.90;;;;;;5039568;28;20063;-85
2023/03/01 04:23:12;;;;;;;74.05;28.70;;;-3.70;99.90;;;;;;5056336;28;20024;-85
2023/03/01 04:25:56;;;;;;;62.78;26.08;;;-3.70;99.90;;;;;;5056288;28;20439;-85
2023/03/01 04:28:34;;;;;;;66.30;26.58;;;-3.70;99.90;;;;;;5038836;28;20064;-85
2023/03/01 04:31:12;;;;;;;60.63;25.05;;;-3.80;99.90;;;;;;5056140;28;20020;-85
2023/03/01 04:33:45;;;;;;;57.92;25.63;;;-3.80;99.90;;;;;;5063906;28;20032;-85
2023/03/01 04:36:13;;;;;;;72.72;27.92;;;-3.80;99.90;;;;;;5037317;28;20032;-85
2023/03/01 04:38:39;;;;;;;64.47;25.67;;;-3.80;99.90;;;;;;5056111;28;20440;-86
2023/03/01 04:41:07;;;;;;;63.47;27.33;;;-3.80;99.90;;;;;;5039346;28;20019;-84
2023/03/01 04:43:33;;;;;;;71.18;26.58;;;-3.80;99.90;;;;;;5055443;28;20028;-84
2023/03/01 04:46:09;;;;;;;67.40;27.10;;;-3.80;99.90;;;;;;5055981;28;20020;-84
2023/03/01 04:48:39;;;;;;;62.90;24.95;;;-3.90;99.90;;;;;;5049866;28;20024;-85
2023/03/01 04:51:06;;;;;;;58.47;25.15;;;-3.90;99.90;;;;;;5073914;28;20090;-85
2023/03/01 04:53:32;;;;;;;67.53;27.30;;;-3.90;99.90;;;;;;5055810;28;20054;-85
2023/03/01 04:55:58;;;;;;;62.83;25.48;;;-3.90;99.90;;;;;;5055566;28;20038;-85
2023/03/01 04:58:26;;;;;;;67.95;26.27;;;-3.90;99.90;;;;;;5055401;28;20547;-84
2023/03/01 05:00:52;;;;;;;68.00;26.33;;;-4.00;99.90;;;;;;5039064;28;20028;-85
2023/03/01 05:03:19;;;;;;;72.35;25.83;;;-4.00;99.90;;;;;;5038628;28;20086;-85
2023/03/01 05:05:47;;;;;;;65.47;24.85;;;-4.00;99.90;;;;;;5055665;28;20028;-85
2023/03/01 05:08:17;;;;;;;64.15;25.30;;;-4.00;99.90;;;;;;5038833;28;20032;-85
2023/03/01 05:10:48;;;;;;;67.13;26.70;;;-4.00;99.90;;;;;;5055637;28;20135;-85
2023/03/01 05:13:20;;;;;;;68.88;26.27;;;-4.00;99.90;;;;;;5038690;28;20032;-85
2023/03/01 05:15:59;;;;;;;62.45;27.23;;;-4.00;99.90;;;;;;5055440;28;20039;-85
2023/03/01 05:18:26;;;;;;;75.13;28.50;;;-4.00;99.90;;;;;;5038088;28;20475;-86
2023/03/01 05:20:55;;;;;;;70.22;26.75;;;-4.00;99.90;;;;;;5055425;28;20048;-85
2023/03/01 05:23:22;;;;;;;68.15;26.58;;;-4.00;99.90;;;;;;5038896;28;20029;-85
2023/03/01 05:25:49;;;;;;;71.63;28.02;;;-4.00;99.90;;;;;;5073311;28;20032;-85
2023/03/01 05:28:14;;;;;;;73.15;27.98;;;-4.00;99.90;;;;;;5055657;28;20032;-85
2023/03/01 05:30:41;;;;;;;69.95;28.25;;;-4.00;99.90;;;;;;5055609;28;20081;-85
2023/03/01 05:33:13;;;;;;;63.20;25.85;;;-4.00;99.90;;;;;;5055550;28;20031;-85
2023/03/01 05:35:41;;;;;;;66.22;25.70;;;-4.00;99.90;;;;;;5039146;28;20079;-84
2023/03/01 05:38:07;;;;;;;70.90;27.63;;;-3.90;99.90;;;;;;5038604;28;20025;-85
2023/03/01 05:40:34;;;;;;;65.85;26.92;;;-3.90;99.90;;;;;;5055332;28;20421;-85
2023/03/01 05:42:59;;;;;;;71.45;27.50;;;-3.90;99.90;;;;;;5038638;28;20098;-85
2023/03/01 05:45:26;;;;;;;62.55;25.27;;;-3.90;99.90;;;;;;5072994;28;20464;-85
2023/03/01 05:47:54;;;;;;;75.50;28.02;;;-4.00;99.90;;;;;;5055214;28;20101;-85
2023/03/01 05:50:23;;;;;;;68.63;28.33;;;-4.00;99.90;;;;;;5072833;28;20033;-84
2023/03/01 05:52:58;;;;;;;69.30;27.80;;;-4.00;99.90;;;;;;5055063;28;20056;-85
2023/03/01 05:55:24;;;;;;;70.47;28.33;;;-4.00;99.90;;;;;;5074044;28;20028;-85
2023/03/01 05:57:49;;;;;;;66.13;26.45;;;-4.00;99.90;;;;;;5076665;28;20031;-84
2023/03/01 06:00:18;;;;;;;76.18;28.65;;;-4.00;99.90;;;;;;5058601;28;20523;-85
2023/03/01 06:02:44;;;;;;;71.28;26.40;;;-4.00;99.90;;;;;;5076860;28;20472;-84
2023/03/01 06:05:11;;;;;;;69.55;27.20;;;-4.00;99.90;;;;;;5058900;28;20090;-84
2023/03/01 06:07:37;;;;;;;66.22;26.40;;;-4.00;99.90;;;;;;5037778;28;20036;-84
2023/03/01 06:10:04;;;;;;;66.43;27.20;;;-3.90;99.90;;;;;;5052786;28;20024;-89
2023/03/01 06:12:34;;;;;;;66.18;25.30;;;-3.90;99.90;;;;;;5036554;28;20383;-89
2023/03/01 06:15:00;;;;;;;59.88;26.40;;;-4.00;99.90;;;;;;5044648;28;20383;-89
2023/03/01 06:17:29;;;;;;;64.70;24.52;;;-4.00;99.90;;;;;;5044899;28;20029;-89
2023/03/01 06:19:54;;;;;;;67.05;26.55;;;-3.90;99.90;;;;;;5043604;28;20495;-88
2023/03/01 06:26:08;;;;;;;63.05;24.50;;;-3.90;99.90;;;;;;5076006;28;20035;-89
2023/03/01 06:28:35;;;;;;;67.85;26.17;;;-3.80;99.90;;;;;;5055880;28;20115;-89
2023/03/01 06:31:01;;;;;;;62.45;24.35;;;-3.80;99.90;;;;;;5041628;28;20044;-90
2023/03/01 06:33:27;;;;;;;64.10;24.92;;;-3.80;99.90;;;;;;5050473;28;20033;-91
2023/03/01 06:35:56;;;;;;;68.40;26.05;;;-3.70;99.90;;;;;;5034763;28;20024;-90
2023/03/01 06:38:23;;;;;;;62.40;25.45;;;-3.70;99.90;;;;;;5042267;28;20037;-90
2023/03/01 06:40:56;;;;;;;66.22;25.33;;;-3.70;99.90;;;;;;5036103;28;20021;-91
2023/03/01 06:43:23;;;;;;;59.10;23.83;;;-3.70;99.90;;;;;;5039278;28;20028;-91
2023/03/01 06:45:49;;;;;;;68.63;25.95;;;-3.60;99.90;;;;;;5032483;28;20025;-90
2023/03/01 06:48:15;;;;;;;69.85;25.88;;;-3.60;99.90;;;;;;5037884;28;20435;-90
2023/03/01 06:50:41;;;;;;;69.15;25.20;;;-3.60;99.90;;;;;;5048850;28;20037;-91
2023/03/01 06:53:06;;;;;;;53.88;22.80;;;-3.60;99.90;;;;;;5063120;28;20040;-91
2023/03/01 06:55:32;;;;;;;63.42;25.48;;;-3.50;99.90;;;;;;5076616;28;20063;-90
2023/03/01 06:58:00;;;;;;;56.97;23.88;;;-3.40;99.90;;;;;;5054942;28;20032;-90
2023/03/01 07:00:27;;;;;;;58.53;23.48;;;-3.40;99.90;;;;;;5056583;28;20032;-90
2023/03/01 07:02:53;;;;;;;59.42;23.55;;;-3.40;99.90;;;;;;5058076;28;20032;-90
2023/03/01 07:05:19;;;;;;;62.15;25.60;;;-3.20;99.90;;;;;;5051392;28;20128;-90
2023/03/01 07:07:45;;;;;;;63.63;25.42;;;-3.20;99.90;;;;;;5043406;28;20031;-90
2023/03/01 07:11:02;;;;;;;69.88;25.83;;;-3.10;99.90;;;;;;5054648;28;20033;-89
2023/03/01 07:13:28;;;;;;;70.95;27.00;;;-3.10;99.90;;;;;;5040766;28;20027;-90
2023/03/01 07:15:56;;;;;;;77.97;29.52;;;-3.10;99.90;;;;;;5040729;28;20115;-90
2023/03/01 07:18:22;;;;;;;68.20;27.33;;;-3.00;99.90;;;;;;5054989;28;20515;-90
2023/03/01 07:20:48;;;;;;;75.50;28.15;;;-2.90;99.90;;;;;;5042063;28;20115;-90
2023/03/01 07:23:14;;;;;;;72.75;28.88;;;-2.90;99.90;;;;;;5059017;28;20028;-89
2023/03/01 07:25:39;;;;;;;65.85;26.48;;;-2.80;99.90;;;;;;5039183;28;20032;-90
2023/03/01 07:28:05;;;;;;;92.55;33.70;;;-2.70;99.90;;;;;;5050913;28;20476;-89
2023/03/01 07:30:34;;;;;;;70.35;28.65;;;-2.70;99.90;;;;;;5062087;28;20033;-89
2023/03/01 07:32:59;;;;;;;66.30;27.05;;;-2.60;99.90;;;;;;5043007;28;20056;-89
2023/03/01 07:35:26;;;;;;;75.90;27.67;;;-2.60;99.90;;;;;;5032741;28;20542;-89
2023/03/01 07:37:52;;;;;;;65.43;26.52;;;-2.50;99.90;;;;;;5049639;28;20078;-90
2023/03/01 07:40:18;;;;;;;79.38;29.70;;;-2.50;99.90;;;;;;5052451;28;20115;-90
2023/03/01 07:42:44;;;;;;;68.05;25.75;;;-2.40;99.90;;;;;;5040308;28;20108;-89
2023/03/01 07:45:10;;;;;;;58.17;24.80;;;-2.40;99.90;;;;;;5038932;28;20124;-89
2023/03/01 07:47:36;;;;;;;59.60;23.55;;;-2.30;99.90;;;;;;5052206;28;20031;-89
2023/03/01 07:50:03;;;;;;;55.08;24.80;;;-2.20;99.90;;;;;;5037498;28;20020;-89
2023/03/01 07:52:30;;;;;;;52.83;24.50;;;-2.10;99.90;;;;;;5024050;28;20063;-90
2023/03/01 07:54:56;;;;;;;49.65;23.30;;;-2.00;99.90;;;;;;5023416;28;20175;-89
2023/03/01 07:57:22;;;;;;;60.38;25.08;;;-2.00;99.90;;;;;;5042054;28;20036;-89
2023/03/01 07:59:48;;;;;;;61.33;24.52;;;-1.80;99.90;;;;;;5034811;28;20091;-89
2023/03/01 08:02:14;;;;;;;51.65;24.10;;;-1.80;99.90;;;;;;5053560;28;20028;-89
2023/03/01 08:04:41;;;;;;;57.47;24.90;;;-1.80;99.90;;;;;;5052335;28;20020;-89
2023/03/01 08:07:07;;;;;;;54.97;23.88;;;-1.70;99.90;;;;;;5027437;28;20025;-90
2023/03/01 08:09:36;;;;;;;55.65;25.88;;;-1.70;99.90;;;;;;5039576;28;20437;-89
2023/03/01 08:12:04;;;;;;;53.67;23.73;;;-1.60;99.90;;;;;;5062739;28;20176;-89
2023/03/01 08:15:07;;;;;;;61.60;24.77;;;-1.50;99.90;;;;;;5028602;28;20025;-89
2023/03/01 08:17:42;;;;;;;55.45;24.38;;;-1.50;99.90;;;;;;5047941;28;20128;-89
2023/03/01 08:20:12;;;;;;;65.00;25.17;;;-1.40;99.90;;;;;;5040081;28;20031;-88
2023/03/01 08:22:38;;;;;;;66.65;24.73;;;-1.30;99.90;;;;;;5042259;28;20090;-90
2023/03/01 08:25:04;;;;;;;58.10;24.95;;;-1.20;99.90;;;;;;5056877;28;20020;-90
2023/03/01 08:27:29;;;;;;;54.47;24.33;;;-1.20;99.90;;;;;;5032108;28;20493;-90
2023/03/01 08:29:55;;;;;;;61.78;26.98;;;-1.10;99.90;;;;;;5038605;28;20029;-90
2023/03/01 08:32:27;;;;;;;67.40;27.85;;;-1.00;99.90;;;;;;5044925;28;20550;-89
2023/03/01 08:34:55;;;;;;;82.28;28.92;;;-1.00;99.90;;;;;;5036619;28;20096;-89
2023/03/01 08:37:21;;;;;;;55.65;24.10;;;-0.90;99.90;;;;;;5033254;28;20025;-91
2023/03/01 08:39:47;;;;;;;54.55;23.83;;;-0.90;99.90;;;;;;5036013;28;20023;-90
2023/03/01 08:42:12;;;;;;;53.03;23.10;;;-0.70;99.90;;;;;;5052071;28;20025;-90
2023/03/01 08:44:38;;;;;;;59.35;26.10;;;-0.60;99.90;;;;;;5059204;28;20095;-90
2023/03/01 08:47:04;;;;;;;60.53;24.15;;;-0.60;99.90;;;;;;5043714;28;20098;-90
2023/03/01 08:49:32;;;;;;;57.13;24.52;;;-0.60;99.90;;;;;;5043211;28;20023;-90
2023/03/01 08:51:58;;;;;;;59.65;26.10;;;-0.50;99.90;;;;;;5059182;28;20368;-90
2023/03/01 08:54:23;;;;;;;62.83;24.98;;;-0.40;99.90;;;;;;5043665;28;20024;-90
2023/03/01 08:56:49;;;;;;;63.95;26.02;;;-0.30;99.90;;;;;;5042562;28;20035;-89
2023/03/01 08:59:16;;;;;;;53.58;24.88;;;-0.30;99.90;;;;;;5059585;28;20032;-90
2023/03/01 09:01:45;;;;;;;60.65;24.35;;;-0.10;99.90;;;;;;5039647;28;20491;-90
2023/03/01 09:04:12;;;;;;;68.88;29.30;;;-0.10;99.90;;;;;;5040994;28;20036;-90
2023/03/01 09:06:38;;;;;;;59.72;25.65;;;-0.10;99.90;;;;;;5043037;28;20547;-90
2023/03/01 09:09:05;;;;;;;71.30;26.92;;;0.00;99.90;;;;;;5041646;28;20119;-91
2023/03/01 09:11:31;;;;;;;53.67;23.27;;;0.10;99.90;;;;;;5059254;28;20036;-90
2023/03/01 09:13:57;;;;;;;65.55;24.70;;;0.10;99.90;;;;;;5058137;28;20032;-90
2023/03/01 09:16:23;;;;;;;53.28;23.95;;;0.10;99.90;;;;;;5041996;28;20373;-90
2023/03/01 09:18:51;;;;;;;52.25;22.90;;;0.20;99.90;;;;;;5047340;28;20044;-90
2023/03/01 09:21:18;;;;;;;51.15;23.33;;;0.30;99.90;;;;;;5063301;28;20391;-90
2023/03/01 09:23:46;;;;;;;56.28;24.67;;;0.30;99.90;;;;;;5043467;28;20055;-90
2023/03/01 09:26:18;;;;;;;57.33;25.05;;;0.40;99.90;;;;;;5047460;28;20028;-90
2023/03/01 09:28:45;;;;;;;54.03;24.85;;;0.40;99.90;;;;;;5082646;28;20103;-90
2023/03/01 09:31:12;;;;;;;57.55;24.85;;;0.40;99.90;;;;;;5064918;28;20491;-90
2023/03/01 09:33:39;;;;;;;53.17;23.95;;;0.40;99.90;;;;;;5066945;28;20036;-90
2023/03/01 09:36:09;;;;;;;60.65;24.90;;;0.50;99.90;;;;;;5049890;28;20029;-90
2023/03/01 09:38:35;;;;;;;51.85;24.65;;;0.80;99.90;;;;;;5049027;28;20060;-90
2023/03/01 09:41:01;;;;;;;65.03;24.30;;;1.40;99.90;;;;;;5049002;28;20020;-91
2023/03/01 09:43:46;;;;;;;51.47;23.73;;;2.00;99.90;;;;;;5064875;28;20029;-91
2023/03/01 09:46:16;;;;;;;52.65;22.85;;;2.60;99.90;;;;;;5045050;28;20036;-90
2023/03/01 09:48:51;;;;;;;48.33;23.35;;;3.20;99.90;;;;;;5041947;28;20033;-91
2023/03/01 09:51:35;;;;;;;61.40;25.17;;;3.50;99.90;;;;;;5042194;28;20484;-91
2023/03/01 09:54:03;;;;;;;51.53;23.58;;;4.10;99.90;;;;;;5048455;28;20108;-90
2023/03/01 09:56:35;;;;;;;49.45;24.73;;;4.20;99.90;;;;;;5049060;28;20033;-90
2023/03/01 09:59:19;;;;;;;49.53;26.05;;;4.60;99.90;;;;;;5052785;28;20036;-91
2023/03/01 10:01:52;;;;;;;41.67;23.60;;;4.90;99.90;;;;;;5063340;28;20059;-91
2023/03/01 10:04:23;;;;;;;62.60;24.95;;;5.20;99.90;;;;;;5038442;28;20040;-91
2023/03/01 10:07:06;;;;;;;;;;;5.10;99.90;;;;;;5054538;28;20032;-91
2023/03/01 10:09:38;;;;;;;46.30;25.17;;;5.20;99.90;;;;;;5046080;28;19909;-91
2023/03/01 10:12:26;;;;;;;60.70;28.35;;;5.30;99.90;;;;;;5044330;28;20039;-91
2023/03/01 10:15:14;;;;;;;45.05;24.08;;;5.30;99.90;;;;;;5040206;28;20546;-92
2023/03/01 10:17:46;;;;;;;42.08;23.60;;;5.50;99.90;;;;;;5051557;28;20483;-92
2023/03/01 10:20:44;;;;;;;54.42;25.10;;;5.90;99.90;;;;;;5055062;28;20032;-91
2023/03/01 10:23:10;;;;;;;44.28;24.30;;;6.00;99.90;;;;;;5056843;28;20036;-91
2023/03/01 10:25:48;;;;;;;42.97;24.33;;;6.00;99.90;;;;;;5040242;28;20026;-90
2023/03/01 10:28:20;;;;;;;40.75;22.73;;;6.30;99.90;;;;;;5039740;28;20028;-91
2023/03/01 10:30:46;;;;;;;49.97;25.13;;;6.20;99.90;;;;;;5052162;28;20064;-91
2023/03/01 10:33:35;;;;;;;46.75;24.33;;;5.80;99.90;;;;;;5063064;28;20056;-91
2023/03/01 10:36:01;;;;;;;44.65;22.35;;;6.10;99.90;;;;;;5040306;28;20086;-91
2023/03/01 10:38:31;;;;;;;49.35;25.13;;;6.70;99.90;;;;;;5036397;28;20396;-91
2023/03/01 10:40:58;;;;;;;57.13;23.50;;;7.00;99.90;;;;;;5044343;28;20063;-91
2023/03/01 10:43:51;;;;;;;44.47;21.48;;;7.00;99.90;;;;;;5037293;28;20514;-90
2023/03/01 10:46:34;;;;;;;41.60;22.17;;;6.80;98.90;;;;;;5032978;28;20480;-91
2023/03/01 10:49:06;;;;;;;55.58;23.95;;;6.70;99.00;;;;;;5041939;28;20052;-91
2023/03/01 10:51:32;;;;;;;46.25;25.40;;;6.40;99.90;;;;;;5035574;28;20080;-92
2023/03/01 10:53:58;;;;;;;41.72;23.58;;;6.00;99.90;;;;;;5049998;28;20025;-91
2023/03/01 10:56:25;;;;;;;42.30;22.70;;;6.00;99.90;;;;;;5034102;28;20029;-91
2023/03/01 10:58:59;;;;;;;36.03;22.63;;;6.30;99.90;;;;;;5038756;28;20036;-91
2023/03/01 11:01:32;;;;;;;125.95;30.65;;;6.20;99.90;;;;;;5045085;28;20032;-91
2023/03/01 11:04:12;;;;;;;41.22;22.52;;;6.60;99.90;;;;;;5035527;28;20059;-92
2023/03/01 11:06:40;;;;;;;47.90;23.33;;;6.80;99.90;;;;;;5044555;28;20040;-92
2023/03/01 11:09:22;;;;;;;43.75;23.40;;;7.00;99.10;;;;;;5038090;28;20029;-91
2023/03/01 11:11:56;;;;;;;56.40;24.85;;;6.70;99.90;;;;;;5055033;28;20029;-92
2023/03/01 11:14:29;;;;;;;47.33;25.33;;;6.50;99.90;;;;;;5030132;28;20040;-91
2023/03/01 11:17:25;;;;;;;46.53;24.60;;;6.30;99.90;;;;;;5041383;28;20537;-92
2023/03/01 11:20:12;;;;;;;48.63;24.42;;;6.00;99.90;;;;;;5029748;28;20128;-91
2023/03/01 11:22:45;;;;;;;42.35;24.13;;;6.30;99.90;;;;;;5057838;28;20021;-92
2023/03/01 11:25:13;;;;;;;43.30;24.10;;;6.50;99.90;;;;;;5031262;28;20049;-91
2023/03/01 11:27:47;;;;;;;41.53;24.02;;;6.70;99.90;;;;;;5041340;28;20092;-91
2023/03/01 11:30:18;;;;;;;40.40;22.23;;;6.30;99.90;;;;;;5058378;28;20447;-90
2023/03/01 11:32:54;;;;;;;41.40;23.33;;;6.20;99.90;;;;;;5041014;28;20094;-92
2023/03/01 11:35:26;;;;;;;41.72;24.15;;;6.30;99.90;;;;;;5057942;28;20281;-93
2023/03/01 11:38:02;;;;;;;45.95;24.65;;;6.30;99.90;;;;;;5041675;28;20036;-92
2023/03/01 11:40:37;;;;;;;41.85;23.83;;;6.60;99.90;;;;;;5058577;28;20361;-91
2023/03/01 11:43:18;;;;;;;43.67;24.00;;;6.50;99.90;;;;;;5042366;28;20028;-91
2023/03/01 11:45:50;;;;;;;46.25;23.17;;;6.80;99.90;;;;;;5041352;28;20024;-92
2023/03/01 11:48:39;;;;;;;43.80;22.67;;;7.20;99.90;;;;;;5058084;28;20033;-92
2023/03/01 11:51:20;;;;;;;41.42;22.75;;;7.40;98.50;;;;;;5035455;28;20024;-91
2023/03/01 11:53:53;;;;;;;35.28;22.08;;;7.60;98.50;;;;;;5040075;28;20086;-92
2023/03/01 11:56:24;;;;;;;41.10;21.52;;;7.40;97.30;;;;;;5041372;28;20429;-92
2023/03/01 11:58:52;;;;;;;;;;;7.60;98.00;;;;;;5057747;28;20032;-92
2023/03/01 12:01:43;;;;;;;44.83;22.17;;;8.00;96.70;;;;;;5041197;28;19958;-92
2023/03/01 12:04:27;;;;;;;37.50;20.67;;;8.10;96.20;;;;;;5052031;28;20103;-92
2023/03/01 12:07:50;;;;;;;43.33;22.95;;;8.20;94.30;;;;;;5038844;28;20155;-91
2023/03/01 12:10:20;;;;;;;42.90;23.45;;;7.90;94.30;;;;;;4977675;28;20034;-92
2023/03/01 12:13:12;;;;;;;38.17;22.20;;;7.80;94.40;;;;;;4977679;28;20113;-91
2023/03/01 12:16:20;;;;;;;60.25;22.35;;;8.00;94.80;;;;;;5092058;27;20366;-92
2023/03/01 12:18:57;;;;;;;41.00;21.23;;;8.20;95.10;;;;;;5053774;28;20052;-92
2023/03/01 12:21:42;;;;;;;40.58;21.30;;;8.40;94.00;;;;;;5071579;28;20066;-91
2023/03/01 12:24:28;;;;;;;38.25;21.52;;;8.50;93.30;;;;;;5070614;28;20028;-91
2023/03/01 12:26:59;;;;;;;37.10;19.77;;;8.20;93.40;;;;;;5062490;28;20147;-92
2023/03/01 12:29:31;;;;;;;;;;;8.10;93.00;;;;;;5053326;28;20029;-92
2023/03/01 12:32:23;;;;;;;32.22;18.75;;;8.10;94.90;;;;;;5104353;28;19914;-92
2023/03/01 12:35:19;;;;;;;44.85;20.63;;;8.50;93.70;;;;;;5085912;28;20044;-92
2023/03/01 12:37:56;;;;;;;39.15;20.75;;;8.50;93.00;;;;;;5053209;28;20027;-93
2023/03/01 12:40:37;;;;;;;39.55;20.17;;;7.90;92.70;;;;;;5070062;28;20028;-92
2023/03/01 12:43:06;;;;;;;54.80;21.98;;;7.60;94.30;;;;;;5063118;28;20025;-92
2023/03/01 12:45:47;;;;;;;52.80;22.67;;;7.60;94.50;;;;;;5069497;28;20040;-92
2023/03/01 12:48:24;;;;;;;;;;;7.60;94.60;;;;;;5054273;28;20081;-92
2023/03/01 12:50:57;;;;;;;40.35;21.13;;;6.90;94.80;;;;;;5070154;28;19913;-93
2023/03/01 12:53:34;;;;;;;40.38;22.25;;;6.70;96.70;;;;;;5053998;28;20487;-93
2023/03/01 12:56:05;;;;;;;116.78;27.55;;;6.70;96.40;;;;;;5070653;28;20460;-92